Time;durP1;ratioP1;P1;durP2;ratioP2;P2;SDS_P1;SDS_P2;PMS_P1;PMS_P2;Temp;Humidity;BMP_temperature;BMP_pressure;BME280_temperature;BME280_humidity;BME280_pressure;Samples;Min_cycle;Max_cycle;Signal;HPM_P1;HPM_P2
2021/08/05 00:00:42;;;;;;;16.85;15.25;;;;;;;16.22;79.90;101263.06;4934533;29;20046;-88
2021/08/05 00:03:10;;;;;;;13.85;12.43;;;;;;;16.24;79.65;101270.00;4949280;29;20039;-89
2021/08/05 00:05:39;;;;;;;15.00;13.60;;;;;;;16.25;79.66;101263.72;4918936;29;20047;-87
2021/08/05 00:08:05;;;;;;;14.88;13.40;;;;;;;16.28;79.52;101259.97;4950215;29;20050;-87
2021/08/05 00:10:33;;;;;;;16.27;14.65;;;;;;;16.27;79.62;101259.09;4966590;28;20031;-90
2021/08/05 00:13:00;;;;;;;15.45;13.95;;;;;;;16.26;79.53;101260.06;4949716;29;20057;-87
2021/08/05 00:15:30;;;;;;;15.35;13.82;;;;;;;16.25;79.58;101250.38;4934873;29;20039;-88
2021/08/05 00:17:59;;;;;;;14.70;13.20;;;;;;;16.22;79.50;101247.06;4935788;29;20027;-89
2021/08/05 00:20:30;;;;;;;15.52;13.60;;;;;;;16.18;79.47;101249.94;4933997;29;20094;-89
2021/08/05 00:23:00;;;;;;;13.98;12.48;;;;;;;16.16;79.37;101248.34;4934922;29;20059;-89
2021/08/05 00:25:26;;;;;;;13.60;12.30;;;;;;;16.10;79.43;101238.13;4938823;29;20035;-89
2021/08/05 00:27:56;;;;;;;14.75;13.25;;;;;;;16.04;79.79;101237.56;4945400;29;20033;-88
2021/08/05 00:30:22;;;;;;;16.13;14.38;;;;;;;16.00;79.87;101241.44;4930220;29;20031;-89
2021/08/05 00:32:50;;;;;;;15.63;14.02;;;;;;;15.96;79.99;101239.88;4965164;28;20016;-88
2021/08/05 00:35:16;;;;;;;17.05;15.25;;;;;;;15.94;80.63;101244.47;4979607;23;20116;-83
2021/08/05 00:37:43;;;;;;;18.85;16.08;;;;;;;15.89;80.60;101241.28;4965163;28;20350;-83
2021/08/05 00:40:11;;;;;;;16.98;15.20;;;;;;;15.84;80.46;101246.06;4965712;28;20394;-83
2021/08/05 00:42:36;;;;;;;14.35;12.85;;;;;;;15.82;79.79;101246.19;4965622;28;20027;-84
2021/08/05 00:45:02;;;;;;;15.55;13.13;;;;;;;15.78;80.49;101239.38;4982628;28;20023;-84
2021/08/05 00:47:28;;;;;;;20.20;16.65;;;;;;;15.66;80.60;101239.25;4982924;28;20494;-84
2021/08/05 00:49:55;;;;;;;15.05;13.50;;;;;;;15.60;80.33;101228.13;4982714;28;20033;-83
2021/08/05 00:52:23;;;;;;;15.80;14.18;;;;;;;15.52;80.75;101236.66;4949911;28;20023;-83
2021/08/05 00:54:49;;;;;;;18.10;15.55;;;;;;;15.45;81.33;101230.91;4949400;28;20027;-85
2021/08/05 00:57:15;;;;;;;15.98;14.27;;;;;;;15.39;81.13;101229.47;4982365;28;20039;-84
2021/08/05 00:59:41;;;;;;;18.60;15.82;;;;;;;15.34;81.07;101220.09;4965510;28;20035;-85
2021/08/05 01:02:17;;;;;;;14.70;13.18;;;;;;;15.27;80.66;101223.19;4965503;28;20033;-86
2021/08/05 01:04:48;;;;;;;14.23;12.52;;;;;;;15.19;80.81;101213.03;4965743;28;20026;-84
2021/08/05 01:07:44;;;;;;;13.93;12.43;;;;;;;15.16;81.15;101217.72;4950077;28;20030;-85
2021/08/05 01:10:44;;;;;;;18.85;16.08;;;;;;;15.13;81.18;101220.56;4922511;29;20123;-85
2021/08/05 01:13:28;;;;;;;17.60;15.23;;;;;;;15.09;81.16;101217.28;4833203;29;20056;-84
2021/08/05 01:15:56;;;;;;;18.17;13.65;;;;;;;15.06;81.13;101215.66;4850826;29;20057;-85
2021/08/05 01:18:31;;;;;;;16.90;14.32;;;;;;;15.03;81.17;101205.22;4834708;29;20576;-85
2021/08/05 01:21:01;;;;;;;19.05;16.50;;;;;;;14.99;81.59;101209.03;4850448;29;20049;-85
2021/08/05 01:23:50;;;;;;;17.58;15.07;;;;;;;14.94;81.33;101204.03;4851675;29;20046;-86
2021/08/05 01:26:24;;;;;;;17.85;15.18;;;;;;;14.92;81.28;101199.75;4851460;29;20052;-83
2021/08/05 01:28:50;;;;;;;19.98;15.70;;;;;;;14.89;81.23;101202.63;4838371;29;20046;-84
2021/08/05 01:31:16;;;;;;;20.23;17.23;;;;;;;14.89;81.95;101190.16;4837373;29;20393;-85
2021/08/05 01:33:42;;;;;;;20.75;16.20;;;;;;;14.88;81.34;101198.22;4851719;29;20061;-85
2021/08/05 01:36:08;;;;;;;18.90;15.25;;;;;;;14.87;81.63;101191.22;4821489;29;20066;-83
2021/08/05 01:38:38;;;;;;;19.73;15.18;;;;;;;14.89;81.35;101192.81;4821196;29;20148;-85
2021/08/05 01:41:08;;;;;;;18.70;15.75;;;;;;;14.89;81.60;101181.31;4835150;29;20133;-85
2021/08/05 01:43:36;;;;;;;20.67;17.30;;;;;;;14.89;81.90;101187.47;4821184;29;20046;-85
2021/08/05 01:46:01;;;;;;;23.45;19.02;;;;;;;14.93;82.43;101190.81;4833536;29;20050;-85
2021/08/05 01:48:27;;;;;;;19.35;15.93;;;;;;;14.97;82.40;101186.97;4859221;29;20081;-85
2021/08/05 01:50:55;;;;;;;21.27;17.33;;;;;;;15.00;81.97;101172.63;4930958;29;20039;-84
2021/08/05 01:53:21;;;;;;;23.08;18.23;;;;;;;15.01;81.99;101175.19;4946476;29;20035;-84
2021/08/05 01:55:49;;;;;;;26.70;21.13;;;;;;;15.03;82.85;101175.09;4946361;29;20058;-85
2021/08/05 01:58:17;;;;;;;24.60;20.23;;;;;;;15.04;82.81;101172.31;4964631;29;20033;-85
2021/08/05 02:00:42;;;;;;;18.48;16.23;;;;;;;15.01;82.40;101169.00;4964430;29;20031;-85
2021/08/05 02:03:11;;;;;;;20.05;17.65;;;;;;;15.00;82.23;101175.28;4945163;29;20090;-83
2021/08/05 02:06:04;;;;;;;17.42;14.73;;;;;;;14.94;82.13;101172.06;4945374;29;20099;-86
2021/08/05 02:08:40;;;;;;;21.08;16.77;;;;;;;14.91;81.79;101174.06;4961977;29;20046;-85
2021/08/05 02:11:07;;;;;;;19.95;16.75;;;;;;;14.90;81.74;101177.69;4929744;29;20031;-84
2021/08/05 02:13:39;;;;;;;26.85;20.85;;;;;;;14.92;82.05;101186.44;4960554;29;20027;-87
2021/08/05 02:16:06;;;;;;;30.45;22.73;;;;;;;14.94;83.03;101185.38;4929797;29;20677;-86
2021/08/05 02:18:32;;;;;;;24.33;19.73;;;;;;;14.97;83.09;101181.66;4945172;29;20026;-85
2021/08/05 02:20:58;;;;;;;24.85;18.58;;;;;;;14.94;82.75;101179.19;4961976;29;20034;-84
2021/08/05 02:23:24;;;;;;;21.40;17.52;;;;;;;14.91;82.57;101169.59;4950085;29;20117;-85
2021/08/05 02:25:50;;;;;;;18.58;15.88;;;;;;;14.87;82.41;101169.91;4957199;29;20035;-81
2021/08/05 02:28:16;;;;;;;22.63;18.42;;;;;;;14.83;82.68;101166.59;4941078;29;20083;-84
2021/08/05 02:30:42;;;;;;;18.52;15.77;;;;;;;14.79;82.22;101163.28;4938007;29;20019;-85
2021/08/05 02:33:08;;;;;;;32.25;23.00;;;;;;;14.75;83.07;101160.91;4936359;29;20062;-86
2021/08/05 02:35:36;;;;;;;22.17;17.55;;;;;;;14.72;82.73;101153.94;4923586;29;20047;-85
2021/08/05 02:38:02;;;;;;;24.00;17.60;;;;;;;14.80;82.14;101156.16;4963385;29;20039;-85
2021/08/05 02:40:28;;;;;;;26.92;21.15;;;;;;;14.89;82.57;101162.69;4947184;29;20062;-86
2021/08/05 02:42:53;;;;;;;24.33;19.48;;;;;;;14.92;81.99;101152.66;4930625;29;20023;-84
2021/08/05 02:45:19;;;;;;;21.25;17.60;;;;;;;14.88;82.32;101156.50;4963617;29;20047;-85
2021/08/05 02:47:45;;;;;;;19.08;16.15;;;;;;;14.86;81.89;101163.72;4964491;29;20110;-84
2021/08/05 02:50:13;;;;;;;21.65;17.60;;;;;;;14.81;81.98;101163.19;4933282;29;20027;-84
2021/08/05 02:52:38;;;;;;;20.33;16.30;;;;;;;14.75;82.27;101159.06;4949746;29;20068;-86
2021/08/05 02:55:05;;;;;;;19.05;15.02;;;;;;;14.66;81.92;101165.88;4950116;29;20083;-84
2021/08/05 02:57:31;;;;;;;17.98;15.35;;;;;;;14.59;81.92;101151.22;4949401;29;20035;-85
2021/08/05 02:59:57;;;;;;;21.98;17.58;;;;;;;14.52;82.13;101153.47;4931933;29;20019;-84
2021/08/05 03:02:24;;;;;;;29.20;20.67;;;;;;;14.46;83.18;101153.84;4946919;29;20054;-85
2021/08/05 03:04:49;;;;;;;21.00;17.25;;;;;;;14.39;82.50;101147.22;4930922;29;20051;-85
2021/08/05 03:07:15;;;;;;;24.58;18.17;;;;;;;14.34;82.41;101147.50;4915225;29;20075;-85
2021/08/05 03:09:42;;;;;;;21.08;16.63;;;;;;;14.33;82.61;101148.47;4946679;29;20024;-84
2021/08/05 03:12:09;;;;;;;21.35;16.65;;;;;;;14.29;82.76;101145.13;4929045;29;20086;-84
2021/08/05 03:14:37;;;;;;;23.30;16.90;;;;;;;14.26;82.53;101142.69;4961385;29;20030;-86
2021/08/05 03:17:04;;;;;;;23.90;17.25;;;;;;;14.22;82.68;101140.31;4962570;29;20031;-85
2021/08/05 03:19:30;;;;;;;24.92;17.83;;;;;;;14.19;82.97;101146.69;4929872;29;20035;-85
2021/08/05 03:21:55;;;;;;;22.25;16.90;;;;;;;14.15;82.53;101140.69;4946336;29;20114;-84
2021/08/05 03:24:22;;;;;;;21.80;16.75;;;;;;;14.10;82.58;101142.81;4963127;29;20034;-86
2021/08/05 03:26:47;;;;;;;23.73;17.00;;;;;;;14.08;82.54;101134.94;4945242;29;20035;-85
2021/08/05 03:29:16;;;;;;;22.98;17.60;;;;;;;14.09;82.25;101135.78;4944963;29;20031;-85
2021/08/05 03:31:42;;;;;;;25.17;18.48;;;;;;;14.08;82.40;101132.28;4961714;29;20091;-84
2021/08/05 03:34:10;;;;;;;21.20;16.00;;;;;;;14.05;82.09;101131.59;4963745;28;20062;-85
2021/08/05 03:36:37;;;;;;;19.67;16.42;;;;;;;13.99;82.63;101124.88;4963199;28;20054;-84
2021/08/05 03:39:05;;;;;;;24.38;17.67;;;;;;;13.98;82.67;101138.28;4981445;28;20061;-85
2021/08/05 03:41:31;;;;;;;24.58;17.35;;;;;;;13.99;82.95;101137.31;4948475;28;20035;-84
2021/08/05 03:43:56;;;;;;;27.73;19.65;;;;;;;13.96;83.29;101130.41;4980938;28;20175;-86
2021/08/05 03:46:22;;;;;;;30.98;20.80;;;;;;;13.95;83.39;101132.19;4952337;28;20053;-85
2021/08/05 03:48:54;;;;;;;35.17;23.13;;;;;;;13.96;83.56;101133.06;4967653;28;20027;-84
2021/08/05 03:51:20;;;;;;;26.55;19.83;;;;;;;13.94;83.55;101134.94;4966679;28;20118;-85
2021/08/05 03:53:45;;;;;;;29.27;19.05;;;;;;;13.95;82.85;101123.34;4983960;28;20101;-83
2021/08/05 03:56:12;;;;;;;22.40;17.88;;;;;;;13.93;82.60;101119.97;4983964;28;20027;-86
2021/08/05 03:58:38;;;;;;;23.88;18.05;;;;;;;13.89;82.33;101131.72;4983925;28;20054;-85
2021/08/05 04:01:04;;;;;;;22.60;16.95;;;;;;;13.83;82.27;101120.53;4965680;28;20096;-84
2021/08/05 04:03:31;;;;;;;17.92;13.82;;;;;;;13.83;82.40;101125.00;4969010;28;20043;-84
2021/08/05 04:05:59;;;;;;;21.42;15.43;;;;;;;13.84;82.42;101118.72;4985962;28;20082;-84
2021/08/05 04:08:25;;;;;;;24.88;18.38;;;;;;;13.81;82.95;101126.88;4986062;28;20205;-84
2021/08/05 04:10:51;;;;;;;24.55;19.00;;;;;;;13.78;82.80;101119.97;4984292;28;20394;-85
2021/08/05 04:13:17;;;;;;;22.80;16.90;;;;;;;13.74;82.84;101109.63;4986119;28;20026;-85
2021/08/05 04:15:43;;;;;;;22.38;17.73;;;;;;;13.74;82.69;101105.16;4936851;28;20049;-84
2021/08/05 04:18:09;;;;;;;29.05;19.73;;;;;;;13.80;83.10;101104.78;4952882;28;20027;-85
2021/08/05 04:20:36;;;;;;;35.00;23.00;;;;;;;13.81;83.26;101100.28;4952278;28;20069;-84
2021/08/05 04:23:05;;;;;;;25.10;18.88;;;;;;;13.82;83.22;101107.34;4983272;28;20091;-84
2021/08/05 04:25:30;;;;;;;27.33;19.20;;;;;;;13.85;83.76;101106.28;4963505;28;20057;-84
2021/08/05 04:27:57;;;;;;;29.52;20.75;;;;;;;13.87;83.50;101102.56;4962063;28;20027;-84
2021/08/05 04:30:25;;;;;;;27.98;19.90;;;;;;;13.91;83.63;101101.44;4946375;28;20085;-86
2021/08/05 04:32:51;;;;;;;27.95;20.50;;;;;;;13.94;83.28;101100.38;4979142;28;20027;-85
2021/08/05 04:35:18;;;;;;;34.13;24.67;;;;;;;13.99;83.62;101105.41;4917701;24;20491;-85
2021/08/05 04:37:56;;;;;;;34.92;22.65;;;;;;;14.02;83.52;101111.41;4890942;29;20119;-84
2021/08/05 04:40:22;;;;;;;30.77;21.65;;;;;;;14.06;83.77;101098.75;4924338;29;20056;-85
2021/08/05 04:42:48;;;;;;;33.40;23.50;;;;;;;14.09;83.86;101111.84;4924141;29;20032;-85
2021/08/05 04:45:15;;;;;;;36.40;24.08;;;;;;;14.13;83.95;101109.84;4923973;29;20048;-85
2021/08/05 04:47:56;;;;;;;35.03;22.77;;;;;;;14.14;83.98;101106.22;4923710;29;20051;-85
2021/08/05 04:50:24;;;;;;;36.60;25.20;;;;;;;14.16;84.42;101109.66;4935916;29;20554;-84
2021/08/05 04:52:50;;;;;;;41.55;27.50;;;;;;;14.20;84.32;101100.50;4925896;29;20079;-84
2021/08/05 04:55:19;;;;;;;49.28;30.35;;;;;;;14.29;84.38;101101.75;4942239;29;20040;-85
2021/08/05 04:57:57;;;;;;;46.30;28.98;;;;;;;14.38;84.57;101108.25;4894572;29;20028;-85
2021/08/05 05:00:28;;;;;;;44.55;28.50;;;;;;;14.41;84.58;101098.28;4925825;29;20039;-85
2021/08/05 05:02:55;;;;;;;45.15;25.73;;;;;;;14.46;84.61;101090.00;4909200;29;20036;-83
2021/08/05 05:05:21;;;;;;;37.63;26.27;;;;;;;14.50;84.30;101096.81;4926190;29;20051;-85
2021/08/05 05:07:47;;;;;;;39.45;25.90;;;;;;;14.54;84.50;101094.81;4909361;29;20032;-85
2021/08/05 05:10:13;;;;;;;42.03;27.73;;;;;;;14.59;84.61;101098.00;4925617;29;20111;-86
2021/08/05 05:12:39;;;;;;;45.80;28.30;;;;;;;14.65;84.56;101091.44;4925386;29;20131;-86
2021/08/05 05:15:07;;;;;;;44.65;28.58;;;;;;;14.73;84.65;101098.91;4910009;29;20036;-85
2021/08/05 05:17:34;;;;;;;45.15;28.63;;;;;;;14.82;84.37;101099.19;4909784;29;20032;-85
2021/08/05 05:20:00;;;;;;;44.45;28.67;;;;;;;14.89;84.31;101098.78;4910997;29;20023;-84
2021/08/05 05:22:25;;;;;;;47.15;29.17;;;;;;;14.94;84.58;101100.16;4943519;29;20036;-85
2021/08/05 05:24:51;;;;;;;38.83;27.05;;;;;;;15.01;84.26;101089.09;4943246;29;20043;-84
2021/08/05 05:27:17;;;;;;;41.00;27.73;;;;;;;15.05;84.07;101093.25;4912084;29;20031;-84
2021/08/05 05:29:42;;;;;;;43.75;29.60;;;;;;;15.12;84.30;101097.22;4927968;29;20031;-85
2021/08/05 05:32:08;;;;;;;40.63;28.50;;;;;;;15.19;84.31;101102.97;4950361;29;20027;-84
2021/08/05 05:34:33;;;;;;;41.50;28.50;;;;;;;15.23;84.32;101095.63;4964711;29;20054;-83
2021/08/05 05:36:59;;;;;;;38.10;26.55;;;;;;;15.26;84.20;101100.75;4975984;29;20030;-84
2021/08/05 05:39:24;;;;;;;36.65;26.88;;;;;;;15.28;84.00;101097.00;4952877;29;20092;-85
2021/08/05 05:41:51;;;;;;;36.22;26.55;;;;;;;15.32;83.73;101097.66;4965518;29;20046;-84
2021/08/05 05:44:16;;;;;;;36.88;27.92;;;;;;;15.39;83.82;101090.94;4963620;29;20019;-84
2021/08/05 05:46:43;;;;;;;41.17;28.42;;;;;;;15.43;83.93;101086.25;4944801;28;20079;-85
2021/08/05 05:49:09;;;;;;;43.70;29.38;;;;;;;15.54;83.85;101096.16;4961007;29;20023;-85
2021/08/05 05:51:34;;;;;;;39.45;29.45;;;;;;;15.62;83.72;101095.59;4961183;29;20035;-84
2021/08/05 05:54:00;;;;;;;38.47;27.80;;;;;;;15.69;83.73;101097.72;4958925;29;20027;-84
2021/08/05 05:56:26;;;;;;;41.42;30.17;;;;;;;15.81;83.66;101092.50;4941870;29;20049;-83
2021/08/05 05:58:53;;;;;;;39.45;28.15;;;;;;;15.92;83.51;101094.41;4959878;29;20063;-83
2021/08/05 06:01:19;;;;;;;41.92;30.00;;;;;;;16.02;83.27;101095.47;4926952;29;20027;-85
2021/08/05 06:03:48;;;;;;;32.40;26.58;;;;;;;16.15;83.06;101094.56;4959648;28;20089;-84
2021/08/05 06:06:14;;;;;;;35.55;27.83;;;;;;;16.27;82.80;101093.66;4959959;29;20035;-85
2021/08/05 06:08:40;;;;;;;33.20;25.52;;;;;;;16.39;82.56;101094.59;4959734;28;20136;-84
2021/08/05 06:11:08;;;;;;;30.58;24.67;;;;;;;16.50;81.98;101100.94;4959645;29;20339;-84
2021/08/05 06:13:35;;;;;;;26.90;22.15;;;;;;;16.53;81.23;101100.72;4943056;29;20061;-84
2021/08/05 06:16:00;;;;;;;27.33;23.70;;;;;;;16.59;81.22;101102.94;4926261;29;20035;-85
2021/08/05 06:18:26;;;;;;;27.75;23.52;;;;;;;16.65;80.83;101099.81;4944360;29;20027;-85
2021/08/05 06:20:51;;;;;;;27.05;22.80;;;;;;;16.66;81.15;101096.16;4958714;29;20035;-85
2021/08/05 06:23:17;;;;;;;26.52;22.95;;;;;;;16.71;80.74;101103.81;4959379;29;20024;-85
2021/08/05 06:25:42;;;;;;;25.00;21.33;;;;;;;16.75;80.19;101099.09;4958576;29;20038;-85
2021/08/05 06:28:09;;;;;;;28.00;24.02;;;;;;;16.79;80.23;101100.56;4942597;29;20028;-85
2021/08/05 06:30:36;;;;;;;30.85;25.13;;;;;;;16.84;80.34;101106.41;4959550;29;20031;-84
2021/08/05 06:33:02;;;;;;;31.50;26.98;;;;;;;16.84;79.83;101110.91;4959402;29;20047;-84
2021/08/05 06:35:27;;;;;;;33.33;26.45;;;;;;;16.86;80.07;101106.31;4916886;28;1139488;-86
2021/08/05 06:37:53;;;;;;;34.40;27.20;;;;;;;16.90;80.39;101111.31;4941404;29;20074;-83
2021/08/05 06:40:20;;;;;;;32.17;27.40;;;;;;;16.99;80.34;101115.06;4924035;29;20028;-85
2021/08/05 06:42:45;;;;;;;33.08;27.83;;;;;;;17.12;79.71;101107.03;4941046;29;20028;-85
2021/08/05 06:45:13;;;;;;;30.80;27.00;;;;;;;17.25;79.16;101106.06;4942551;29;20060;-83
2021/08/05 06:47:41;;;;;;;29.88;26.27;;;;;;;17.35;78.69;101112.44;4943848;29;20047;-85
2021/08/05 06:50:09;;;;;;;32.25;26.27;;;;;;;17.35;78.58;101114.22;4944712;29;20043;-85
2021/08/05 06:52:35;;;;;;;26.77;23.88;;;;;;;17.52;78.33;101110.25;4912019;29;20039;-86
2021/08/05 06:55:01;;;;;;;25.13;22.42;;;;;;;17.64;77.06;101111.09;4948548;29;20057;-86
2021/08/05 06:57:29;;;;;;;24.92;21.35;;;;;;;17.75;76.53;101111.09;4949916;29;20034;-86
2021/08/05 07:00:07;;;;;;;23.88;21.27;;;;;;;17.86;76.28;101110.22;4948613;29;20040;-84
2021/08/05 07:02:37;;;;;;;23.98;21.45;;;;;;;17.89;76.68;101111.81;4913420;29;20047;-83
2021/08/05 07:05:13;;;;;;;23.45;20.98;;;;;;;18.07;76.29;101104.13;4944203;29;20364;-84
2021/08/05 07:07:39;;;;;;;23.77;21.17;;;;;;;18.00;75.46;101103.78;4918878;29;20039;-85
2021/08/05 07:10:06;;;;;;;22.95;20.58;;;;;;;18.20;74.82;101098.66;4955894;29;20018;-86
2021/08/05 07:12:35;;;;;;;23.48;21.17;;;;;;;18.26;74.16;101105.34;4972763;29;20032;-83
2021/08/05 07:15:01;;;;;;;21.83;19.65;;;;;;;18.32;73.58;101102.16;4936369;29;20040;-87
2021/08/05 07:17:28;;;;;;;21.42;19.33;;;;;;;18.38;72.65;101101.66;4946716;29;20518;-85
2021/08/05 07:19:56;;;;;;;20.92;18.70;;;;;;;18.44;72.67;101105.66;4946139;29;20039;-86
2021/08/05 07:22:22;;;;;;;20.08;17.95;;;;;;;18.44;72.23;101102.97;4948357;29;20475;-86
2021/08/05 07:24:59;;;;;;;24.85;18.52;;;;;;;18.40;72.59;101090.81;4932543;29;20111;-85
2021/08/05 07:27:47;;;;;;;19.52;17.50;;;;;;;18.61;72.65;101087.31;4948930;29;20028;-85
2021/08/05 07:30:19;;;;;;;21.38;18.98;;;;;;;18.64;72.33;101079.88;4947900;29;20036;-86
2021/08/05 07:32:46;;;;;;;21.00;18.80;;;;;;;19.04;71.79;101085.53;4948736;29;20054;-87
2021/08/05 07:35:13;;;;;;;20.98;18.77;;;;;;;19.16;70.06;101079.16;4946149;29;20075;-86
2021/08/05 07:37:39;;;;;;;20.02;18.02;;;;;;;19.29;69.86;101086.97;4948747;29;20042;-87
2021/08/05 07:40:09;;;;;;;18.33;16.08;;;;;;;19.33;68.30;101079.50;4948250;29;20458;-86
2021/08/05 07:42:36;;;;;;;18.15;16.35;;;;;;;19.69;67.73;101076.41;4947898;29;20411;-85
2021/08/05 07:45:02;;;;;;;20.73;16.23;;;;;;;19.76;66.86;101076.72;4942707;29;20066;-86
2021/08/05 07:47:29;;;;;;;17.45;15.65;;;;;;;19.88;66.10;101078.31;4943945;29;20043;-86
2021/08/05 07:49:56;;;;;;;18.95;17.10;;;;;;;19.98;66.01;101067.59;4943703;29;20027;-87
2021/08/05 07:52:23;;;;;;;18.00;16.08;;;;;;;20.01;65.86;101067.34;4942367;29;20176;-87
2021/08/05 07:54:49;;;;;;;17.27;15.15;;;;;;;20.25;64.53;101068.81;4943813;29;20469;-87
2021/08/05 07:57:14;;;;;;;15.52;13.35;;;;;;;20.52;63.80;101072.63;4943762;29;20044;-86
2021/08/05 07:59:42;;;;;;;15.48;13.90;;;;;;;20.70;62.75;101061.16;4943160;29;20038;-87
2021/08/05 08:02:07;;;;;;;14.93;13.32;;;;;;;21.18;60.58;101060.41;4944363;29;20024;-88
2021/08/05 08:04:33;;;;;;;14.10;12.70;;;;;;;21.08;60.23;101055.91;4943752;29;20067;-86
2021/08/05 08:07:00;;;;;;;16.10;13.10;;;;;;;21.37;59.98;101054.13;4942443;29;20127;-86
2021/08/05 08:09:27;;;;;;;16.20;13.55;;;;;;;21.70;58.92;101051.81;4943842;29;20348;-84
2021/08/05 08:12:14;;;;;;;14.68;13.20;;;;;;;21.91;58.65;101048.06;4942170;29;20055;-85
2021/08/05 08:14:40;;;;;;;16.25;13.13;;;;;;;22.10;57.93;101051.63;4943200;29;20058;-86
2021/08/05 08:17:05;;;;;;;17.38;12.52;;;;;;;21.85;57.36;101052.22;4942657;29;20031;-84
2021/08/05 08:19:32;;;;;;;12.65;11.40;;;;;;;21.95;56.62;101048.59;4926769;29;20038;-85
2021/08/05 08:22:09;;;;;;;12.07;9.55;;;;;;;21.65;53.81;101051.44;4945073;29;20028;-87
2021/08/05 08:24:36;;;;;;;7.30;6.35;;;;;;;21.81;51.37;101042.72;4942837;29;20106;-84
2021/08/05 08:27:01;;;;;;;10.07;7.35;;;;;;;22.22;51.44;101047.69;4943688;29;20039;-82
2021/08/05 08:29:30;;;;;;;11.68;7.88;;;;;;;22.22;51.61;101049.53;4958467;29;20455;-84
2021/08/05 08:31:56;;;;;;;12.73;9.27;;;;;;;22.47;50.56;101047.91;4938752;29;20384;-81
2021/08/05 08:34:30;;;;;;;12.15;9.07;;;;;;;22.15;51.66;101042.06;4936624;23;20081;-86
2021/08/05 08:36:59;;;;;;;13.43;10.00;;;;;;;22.35;51.81;101039.25;4904331;29;20407;-87
2021/08/05 08:39:26;;;;;;;12.60;10.10;;;;;;;22.43;51.83;101035.78;4888941;29;20047;-87
2021/08/05 08:41:54;;;;;;;11.98;9.65;;;;;;;22.47;51.18;101029.06;4890147;29;20456;-85
2021/08/05 08:44:21;;;;;;;12.48;9.80;;;;;;;22.34;51.26;101026.75;4905235;29;20063;-86
2021/08/05 08:46:47;;;;;;;11.88;10.45;;;;;;;22.51;51.36;101033.13;4920339;29;20514;-82
2021/08/05 08:49:12;;;;;;;12.45;10.38;;;;;;;23.06;51.61;101029.50;4888554;29;20079;-84
2021/08/05 08:51:38;;;;;;;12.82;10.70;;;;;;;23.18;50.40;101028.22;4904122;29;20040;-82
2021/08/05 08:54:08;;;;;;;11.52;10.20;;;;;;;23.31;50.00;101032.31;4903546;29;20051;-83
2021/08/05 08:56:36;;;;;;;11.93;10.32;;;;;;;23.90;50.29;101031.53;4903634;29;20029;-88
2021/08/05 08:59:01;;;;;;;12.95;10.10;;;;;;;23.80;49.12;101030.84;4904434;29;20143;-87
2021/08/05 09:01:27;;;;;;;11.18;10.02;;;;;;;23.74;49.30;101027.78;4904022;29;20028;-86
2021/08/05 09:03:54;;;;;;;11.23;10.13;;;;;;;23.80;49.08;101028.97;4890788;29;20036;-87
2021/08/05 09:06:19;;;;;;;11.85;10.60;;;;;;;23.73;48.80;101025.25;4902462;29;20055;-86
2021/08/05 09:08:48;;;;;;;11.10;9.98;;;;;;;23.40;49.51;101015.19;4918506;29;20035;-88
2021/08/05 09:11:14;;;;;;;11.05;9.95;;;;;;;23.69;50.14;101021.22;4918918;29;20036;-91
2021/08/05 09:13:40;;;;;;;10.95;9.70;;;;;;;24.49;47.71;101021.69;4918783;29;20177;-87
2021/08/05 09:16:23;;;;;;;8.38;7.50;;;;;;;24.73;44.64;101017.25;4872244;29;20724;-87
2021/08/05 09:18:48;;;;;;;7.40;6.70;;;;;;;25.62;40.93;101008.22;4917969;29;20055;-88
2021/08/05 09:21:21;;;;;;;11.00;8.20;;;;;;;26.38;42.12;101005.84;4924863;29;20039;-84
2021/08/05 09:23:57;;;;;;;9.30;8.43;;;;;;;27.07;40.98;101003.16;4958943;29;20027;-86
2021/08/05 09:26:43;;;;;;;10.65;9.60;;;;;;;27.45;39.81;101004.91;4941455;29;20050;-84
2021/08/05 09:29:11;;;;;;;10.00;9.00;;;;;;;27.82;39.54;101007.63;4958547;29;20034;-85
2021/08/05 09:31:39;;;;;;;8.75;7.93;;;;;;;26.90;41.19;101010.59;4942965;29;20072;-82
2021/08/05 09:34:07;;;;;;;10.35;9.45;;;;;;;26.34;43.69;101005.38;4962032;29;20086;-85
2021/08/05 09:36:33;;;;;;;9.63;8.70;;;;;;;26.12;43.78;100991.63;4962333;29;20116;-83
2021/08/05 09:38:59;;;;;;;10.00;8.98;;;;;;;25.18;43.30;100997.91;4945775;29;20050;-83
2021/08/05 09:41:24;;;;;;;9.73;8.65;;;;;;;25.36;43.94;100992.25;4963573;29;20061;-82
2021/08/05 09:43:50;;;;;;;9.45;8.55;;;;;;;25.26;42.78;100993.28;4947026;29;20031;-83
2021/08/05 09:46:29;;;;;;;8.80;7.95;;;;;;;25.05;43.83;100993.88;4937743;29;20106;-84
2021/08/05 09:48:58;;;;;;;8.07;7.28;;;;;;;25.81;43.10;100994.41;4972020;29;20042;-83
2021/08/05 09:51:23;;;;;;;8.75;7.95;;;;;;;25.78;43.85;100994.78;4974474;29;20031;-86
2021/08/05 09:54:03;;;;;;;9.18;8.20;;;;;;;25.81;42.36;100989.00;4973636;29;20019;-85
2021/08/05 09:56:30;;;;;;;9.30;8.45;;;;;;;25.90;43.86;100982.50;4955421;29;20106;-86
2021/08/05 09:59:08;;;;;;;9.18;8.38;;;;;;;26.04;43.51;100993.56;4964385;29;20019;-83
2021/08/05 10:01:35;;;;;;;9.70;8.70;;;;;;;25.79;43.50;100988.31;4948023;29;20035;-86
2021/08/05 10:04:36;;;;;;;9.57;8.32;;;;;;;25.55;43.28;100985.56;4962639;29;20049;-85
2021/08/05 10:07:06;;;;;;;8.32;7.55;;;;;;;25.56;44.21;100979.09;4961772;29;20039;-88
2021/08/05 10:09:34;;;;;;;8.25;7.45;;;;;;;24.64;45.99;100979.44;4928064;29;20031;-83
2021/08/05 10:12:16;;;;;;;9.27;8.48;;;;;;;25.49;44.62;100973.59;4943378;29;20039;-85
2021/08/05 10:14:44;;;;;;;8.70;7.68;;;;;;;25.41;44.32;100975.47;4959527;29;20343;-87
2021/08/05 10:17:10;;;;;;;13.68;10.00;;;;;;;25.69;43.55;100967.72;4943327;29;20047;-86
2021/08/05 10:19:40;;;;;;;12.43;10.68;;;;;;;26.00;43.48;100972.25;4945085;29;20031;-89
2021/08/05 10:22:07;;;;;;;9.15;8.20;;;;;;;25.80;44.28;100966.47;4944368;29;20039;-85
2021/08/05 10:24:35;;;;;;;9.73;8.73;;;;;;;25.49;45.00;100970.03;4928551;29;20123;-84
2021/08/05 10:27:01;;;;;;;9.45;8.60;;;;;;;25.57;45.38;100969.13;4942784;29;20106;-86
2021/08/05 10:29:29;;;;;;;8.88;7.88;;;;;;;25.81;45.59;100967.34;4959569;29;20362;-84
2021/08/05 10:31:57;;;;;;;10.10;8.38;;;;;;;25.36;46.25;100965.19;4929721;29;20023;-85
2021/08/05 10:34:25;;;;;;;8.90;8.00;;;;;;;24.90;47.41;100977.53;4952831;29;20074;-83
2021/08/05 10:36:51;;;;;;;9.05;8.25;;;;;;;25.15;47.85;100961.19;4970215;29;20063;-83
2021/08/05 10:39:17;;;;;;;9.80;8.80;;;;;;;24.80;47.36;100966.03;4957095;29;20091;-84
2021/08/05 10:41:44;;;;;;;9.02;7.82;;;;;;;25.50;47.59;100963.56;4957865;29;20095;-83
2021/08/05 10:44:11;;;;;;;9.07;8.27;;;;;;;26.59;44.34;100963.66;4954105;29;20043;-91
2021/08/05 10:46:37;;;;;;;8.43;7.53;;;;;;;27.60;42.40;100958.69;4949935;29;20059;-87
2021/08/05 10:49:05;;;;;;;9.82;8.60;;;;;;;27.78;41.98;100958.31;4965335;29;20803;-87
2021/08/05 10:51:38;;;;;;;8.13;7.32;;;;;;;27.14;43.50;100959.84;4939575;29;20048;-87
2021/08/05 10:54:04;;;;;;;7.18;6.45;;;;;;;26.80;43.43;100948.53;4941627;29;20063;-90
2021/08/05 10:56:31;;;;;;;7.40;6.70;;;;;;;26.61;44.29;100948.00;4944995;29;20034;-87
2021/08/05 10:59:13;;;;;;;7.22;6.55;;;;;;;26.44;43.90;100948.19;4948314;29;20038;-88
2021/08/05 11:01:56;;;;;;;7.63;6.10;;;;;;;25.79;44.72;100942.28;4965796;29;20090;-84
2021/08/05 11:04:41;;;;;;;7.20;6.50;;;;;;;25.50;45.72;100940.06;4965908;29;20027;-84
2021/08/05 11:07:26;;;;;;;7.00;6.40;;;;;;;24.64;47.14;100936.19;4959297;29;20046;-88
2021/08/05 11:10:11;;;;;;;6.82;6.13;;;;;;;24.51;47.92;100935.84;4965793;29;20030;-85
2021/08/05 11:12:43;;;;;;;6.72;6.03;;;;;;;24.54;47.82;100940.09;4934904;29;20046;-91
2021/08/05 11:15:33;;;;;;;7.60;6.10;;;;;;;26.11;45.41;100926.78;4965331;29;20050;-91
2021/08/05 11:18:07;;;;;;;7.25;6.63;;;;;;;26.81;42.29;100929.34;4945723;29;20039;-90